Elaine, AR (72333)

4:35 PM CDT on July 29, 2016 (GMT -0500)
Fletcher | | Change Station

Elev 174 ft 34.30 °N, 90.51 °W | Updated 45 seconds ago

Mostly Cloudy
Mostly Cloudy
90 °F
Feels Like 108 °F
N
6
Wind Variable Wind from SSW

Today
High -- | Low -- °F
--% Chance of Precip.
Yesterday
High -- | Low -- °F
Precip. -- in
Pressure 29.93 in
Visibility 10.0 miles
Clouds Scattered Clouds 3300 ft
Scattered Clouds 4400 ft
Mostly Cloudy 5000 ft
Heat Index 108 °F
Dew Point 81 °F
Humidity 75%
Rainfall 0.00 in
Snow Depth Not available.
6:12 AM 8:06 PM
Waning Crescent, 19% visible
METAR KCKM 292135Z AUTO 20005KT 10SM SCT033 SCT044 BKN050 32/27 A2993 RMK A01
Pressure 29.93 in
Visibility 10.0 miles
Clouds Scattered Clouds 3300 ft
Scattered Clouds 4400 ft
Mostly Cloudy 5000 ft
Heat Index 108 °F
Dew Point 81 °F
Humidity 75%
Rainfall 0.00 in
Snow Depth Not available.
6:12 AM 8:06 PM
Waning Crescent, 19% visible
METAR KCKM 292135Z AUTO 20005KT 10SM SCT033 SCT044 BKN050 32/27 A2993 RMK A01

10-Day Weather Forecast

Almanac

Astronomy

Jul. 29, 2016 Rise Set
Actual Time
Civil Twilight
Nautical Twilight
Astronomical Twilight
Moon
Length of Visible Light
Length of Day
Tomorrow will be .
, % of the Moon is Illuminated

Today's Extremes

State Highs State Lows

Community

WunderPhotos

Upload Photos

1,928,423 photos uploaded!

WunderBlog® & News

Nearby

Air Quality

  Air Quality AQ Index Pollutant
Not available.

Snow Depth

Station Depth Elevation

Earthquake Activity

City Distance Mag. Time & Date
Minimum magnitude displayed is 2.5.

Coastal Water Temperatures

Place Temperature

Stations

Nearby Weather Stations

Station Location Temp. Windchill Dew Point Humidity Wind Precip. Elev Updated Type
                   

Watches & Warnings

There are currently no watches in effect.